SBNT/NAT METAR and TAF weather

Enter ICAO airport designator
Station Type Date Time Source
SBNT METAR 2020/01/19 23:00 UTC NOAA

SBNT 192300Z 12007KT 9999 FEW020 27/23 Q1012


Station Type Date Time Source
SBNT Decoded METAR 2020/01/19 23:00 UTC NOAA

Natal Aeroporto, Brazil (SBNT) 05-55S 035-15W 49M
Jan 19, 2020 - 06:00 PM EST / 2020.01.19 2300 UTC
Wind: from the ESE (120 degrees) at 8 MPH (7 KT):0
Visibility: greater than 7 mile(s):0
Sky conditions: mostly clear
Temperature: 80 F (27 C)
Dew Point: 73 F (23 C)
Relative Humidity: 78%
Pressure (altimeter): 29.88 in. Hg (1012 hPa)
ob: SBNT 192300Z 12007KT 9999 FEW020 27/23 Q1012
cycle: 23

Station Type Date Time Source
SBNT TAF 2020/01/19 18:30 UTC NOAA

TAF SBNT 191600Z 1918/2006 12015KT 9999 SCT020 TX31/1918Z TN24/2006Z
BECMG 1922/1924 12009KT
RMK PEU

Example: see airport list